createdAt,value
2023-01-21T00:01:47.526Z,1.38
2023-01-21T00:04:15.187Z,1.46
2023-01-21T00:06:43.293Z,1.49
2023-01-21T00:09:10.975Z,1.30
2023-01-21T00:11:38.600Z,1.38
2023-01-21T00:14:07.625Z,1.11
2023-01-21T00:16:35.421Z,1.10
2023-01-21T00:19:03.060Z,1.00
2023-01-21T00:21:30.639Z,0.94
2023-01-21T00:23:58.230Z,1.03
2023-01-21T00:26:25.955Z,1.02
2023-01-21T00:28:53.617Z,1.00
2023-01-21T00:31:22.604Z,1.05
2023-01-21T00:33:50.398Z,1.03
2023-01-21T00:36:18.693Z,1.13
2023-01-21T00:38:49.744Z,1.09
2023-01-21T00:41:18.146Z,1.12
2023-01-21T00:43:45.900Z,1.01
2023-01-21T00:46:13.533Z,1.01
2023-01-21T00:48:42.588Z,1.17
2023-01-21T00:51:11.044Z,1.25
2023-01-21T00:53:41.814Z,1.26
2023-01-21T00:56:12.708Z,1.09
2023-01-21T00:58:43.248Z,1.19
2023-01-21T01:01:12.978Z,1.05
2023-01-21T01:03:42.392Z,1.09
2023-01-21T01:06:12.548Z,0.97
2023-01-21T01:08:40.591Z,0.99
2023-01-21T01:11:08.232Z,1.02
2023-01-21T01:13:36.946Z,1.15
2023-01-21T01:16:05.474Z,1.00
2023-01-21T01:18:35.084Z,1.06
2023-01-21T01:21:06.212Z,0.71
2023-01-21T01:23:33.867Z,0.99
2023-01-21T01:26:03.282Z,1.10
2023-01-21T01:28:32.210Z,0.92
2023-01-21T01:31:00.196Z,1.03
2023-01-21T01:33:28.532Z,1.17
2023-01-21T01:35:56.135Z,1.19
2023-01-21T01:38:25.035Z,1.25
2023-01-21T01:40:53.675Z,1.16
2023-01-21T01:43:24.309Z,1.07
2023-01-21T01:45:52.797Z,1.27
2023-01-21T01:48:24.530Z,1.32
2023-01-21T01:50:52.624Z,1.29
2023-01-21T01:53:20.787Z,0.86
2023-01-21T01:55:50.194Z,0.77
2023-01-21T01:58:20.136Z,0.77
2023-01-21T02:00:47.839Z,0.79
2023-01-21T02:03:33.769Z,0.88
2023-01-21T02:06:01.672Z,0.96
2023-01-21T02:08:30.321Z,0.93
2023-01-21T02:11:00.939Z,1.02
2023-01-21T02:13:31.529Z,1.08
2023-01-21T02:16:14.827Z,1.03
2023-01-21T02:18:51.750Z,1.18
2023-01-21T02:21:48.897Z,1.13
2023-01-21T02:24:50.409Z,1.04
2023-01-21T02:27:35.309Z,1.29
2023-01-21T02:30:31.577Z,1.10
2023-01-21T02:33:15.651Z,1.03
2023-01-21T02:35:50.538Z,1.34
2023-01-21T02:38:26.132Z,1.37
2023-01-21T02:41:03.784Z,1.43
2023-01-21T02:43:40.980Z,1.46
2023-01-21T02:46:17.330Z,1.09
2023-01-21T02:48:51.302Z,1.15
2023-01-21T02:51:20.371Z,1.47
2023-01-21T02:53:48.697Z,1.32
2023-01-21T02:56:20.093Z,1.42
2023-01-21T02:58:51.629Z,1.63
2023-01-21T03:01:27.532Z,1.50
2023-01-21T03:04:08.690Z,1.25
2023-01-21T03:06:50.155Z,1.18
2023-01-21T03:09:23.275Z,1.40
2023-01-21T03:12:00.892Z,1.49
2023-01-21T03:14:50.250Z,1.68
2023-01-21T03:17:25.821Z,1.62
2023-01-21T03:20:00.768Z,1.56
2023-01-21T03:22:34.926Z,1.40
2023-01-21T03:25:04.167Z,1.45
2023-01-21T03:27:34.025Z,1.30
2023-01-21T03:30:07.159Z,1.33
2023-01-21T03:32:36.809Z,1.29
2023-01-21T03:35:08.668Z,1.27
2023-01-21T03:37:41.780Z,1.35
2023-01-21T03:40:20.061Z,1.34
2023-01-21T03:42:50.392Z,1.33
2023-01-21T03:45:22.904Z,1.27
2023-01-21T03:47:55.815Z,1.28
2023-01-21T03:50:31.034Z,1.27
2023-01-21T03:52:58.766Z,1.42
2023-01-21T03:55:26.409Z,1.41
2023-01-21T03:57:54.169Z,1.42
2023-01-21T04:00:22.248Z,1.17
2023-01-21T04:02:49.857Z,1.22
2023-01-21T04:05:17.634Z,0.87
2023-01-21T04:07:46.527Z,0.95
2023-01-21T04:10:14.443Z,0.91
2023-01-21T04:12:42.167Z,0.77
2023-01-21T04:15:11.159Z,0.78
2023-01-21T04:17:38.791Z,0.58
2023-01-21T04:20:08.383Z,0.72
2023-01-21T04:22:38.074Z,0.71
2023-01-21T04:25:07.454Z,0.68
2023-01-21T04:27:35.029Z,0.57
2023-01-21T04:30:02.584Z,0.66
2023-01-21T04:32:30.118Z,0.72
2023-01-21T04:34:57.654Z,0.46
2023-01-21T04:37:25.408Z,0.55
2023-01-21T04:39:53.139Z,0.37
2023-01-21T04:42:22.222Z,0.47
2023-01-21T04:44:49.768Z,0.44
2023-01-21T04:47:17.363Z,0.43
2023-01-21T04:49:44.984Z,0.42
2023-01-21T04:52:12.626Z,0.14
2023-01-21T04:54:40.236Z,0.14
2023-01-21T04:57:07.785Z,0.19
2023-01-21T04:59:36.891Z,0.03
2023-01-21T05:02:04.865Z,-0.07
2023-01-21T05:04:32.830Z,-0.17
2023-01-21T05:07:00.494Z,-0.10
2023-01-21T05:09:28.108Z,-0.14
2023-01-21T05:11:55.756Z,-0.05
2023-01-21T05:14:23.401Z,-0.21
2023-01-21T05:16:52.388Z,-0.01
2023-01-21T05:19:20.168Z,0.00
2023-01-21T05:21:47.878Z,-0.11
2023-01-21T05:24:15.864Z,-0.04
2023-01-21T05:26:43.537Z,-0.12
2023-01-21T05:29:11.844Z,-0.10
2023-01-21T05:31:39.676Z,-0.31
2023-01-21T05:34:08.873Z,-0.27
2023-01-21T05:36:36.566Z,-0.42
2023-01-21T05:39:04.648Z,-0.47
2023-01-21T05:41:32.867Z,-0.35
2023-01-21T05:44:00.485Z,-0.61
2023-01-21T05:46:28.126Z,-0.62
2023-01-21T05:48:55.691Z,-0.60
2023-01-21T05:51:24.638Z,-0.69
2023-01-21T05:53:52.278Z,-0.85
2023-01-21T05:56:19.888Z,-0.62
2023-01-21T05:58:47.623Z,-0.90
2023-01-21T06:01:15.181Z,-0.59
2023-01-21T06:03:42.808Z,-0.89
2023-01-21T06:06:10.380Z,-0.92
2023-01-21T06:08:39.262Z,-0.94
2023-01-21T06:11:06.826Z,-1.06
2023-01-21T06:13:34.395Z,-1.08
2023-01-21T06:16:01.961Z,-1.28
2023-01-21T06:18:29.889Z,-1.30
2023-01-21T06:20:59.950Z,-1.41
2023-01-21T06:23:28.347Z,-1.34
2023-01-21T06:26:01.503Z,-1.51
2023-01-21T06:28:29.603Z,-1.58
2023-01-21T06:30:57.685Z,-1.41
2023-01-21T06:33:25.445Z,-1.28
2023-01-21T06:35:53.015Z,-1.12
2023-01-21T06:38:20.601Z,-1.16
2023-01-21T06:40:48.237Z,-1.30
2023-01-21T06:43:17.164Z,-1.25
2023-01-21T06:45:45.015Z,-1.20
2023-01-21T06:48:12.576Z,-1.26
2023-01-21T06:50:40.124Z,-1.26
2023-01-21T06:53:07.722Z,-1.12
2023-01-21T06:55:35.321Z,-1.07
2023-01-21T06:58:03.485Z,-0.83
2023-01-21T07:00:32.601Z,-0.77
2023-01-21T07:03:01.209Z,-1.26
2023-01-21T07:05:29.229Z,-1.60
2023-01-21T07:07:57.803Z,-1.63
2023-01-21T07:10:26.148Z,-1.61
2023-01-21T07:12:53.708Z,-1.65
2023-01-21T07:15:21.435Z,-1.76
2023-01-21T07:17:50.483Z,-1.88
2023-01-21T07:20:18.729Z,-1.61
2023-01-21T07:22:46.298Z,-1.77
2023-01-21T07:25:13.848Z,-1.74
2023-01-21T07:27:42.466Z,-1.78
2023-01-21T07:30:16.183Z,-1.62
2023-01-21T07:32:44.166Z,-1.45
2023-01-21T07:35:13.380Z,-1.65
2023-01-21T07:37:41.202Z,-1.65
2023-01-21T07:40:10.200Z,-1.49
2023-01-21T07:42:37.744Z,-1.76
2023-01-21T07:45:06.205Z,-1.43
2023-01-21T07:47:33.840Z,-1.72
2023-01-21T07:50:04.850Z,-1.79
2023-01-21T07:52:34.194Z,-1.90
2023-01-21T07:55:02.133Z,-1.64
2023-01-21T07:57:29.755Z,-1.51
2023-01-21T07:59:57.301Z,-1.46
2023-01-21T08:02:25.509Z,-1.36
2023-01-21T08:04:53.209Z,-1.24
2023-01-21T08:07:20.759Z,-1.59
2023-01-21T08:09:49.699Z,-1.41
2023-01-21T08:12:17.382Z,-1.82
2023-01-21T08:14:45.130Z,-1.70
2023-01-21T08:17:12.840Z,-1.29
2023-01-21T08:19:40.465Z,-1.40
2023-01-21T08:22:07.997Z,-1.40
2023-01-21T08:24:35.522Z,-1.31
2023-01-21T08:27:04.586Z,-1.29
2023-01-21T08:29:32.157Z,-1.14
2023-01-21T08:31:59.799Z,-0.91
2023-01-21T08:34:27.724Z,-0.74
2023-01-21T08:36:55.273Z,-0.71
2023-01-21T08:39:22.817Z,-0.73
2023-01-21T08:41:50.406Z,-0.73
2023-01-21T08:44:19.400Z,-0.83
2023-01-21T08:46:46.987Z,-0.83
2023-01-21T08:49:14.558Z,-0.91
2023-01-21T08:51:42.673Z,-1.23
2023-01-21T08:54:10.258Z,-0.89
2023-01-21T08:56:37.827Z,-0.84
2023-01-21T08:59:05.737Z,-0.87
2023-01-21T09:01:36.147Z,-0.88
2023-01-21T09:04:03.746Z,-1.08
2023-01-21T09:06:31.327Z,-1.01
2023-01-21T09:08:59.313Z,-0.68
2023-01-21T09:11:27.622Z,-0.38
2023-01-21T09:13:56.787Z,-0.60
2023-01-21T09:16:24.426Z,-0.53
2023-01-21T09:18:53.321Z,-0.44
2023-01-21T09:21:20.959Z,-0.57
2023-01-21T09:23:48.609Z,-0.41
2023-01-21T09:26:17.613Z,-0.28
2023-01-21T09:28:47.705Z,-0.43
2023-01-21T09:31:18.185Z,-0.39
2023-01-21T09:33:48.173Z,-0.11
2023-01-21T09:36:19.635Z,-0.36
2023-01-21T09:38:48.602Z,-0.18
2023-01-21T09:41:24.413Z,-0.24
2023-01-21T09:43:59.948Z,0.04
2023-01-21T09:46:35.989Z,0.39
2023-01-21T09:49:06.662Z,0.51
2023-01-21T09:51:52.197Z,0.46
2023-01-21T09:54:26.609Z,0.55
2023-01-21T09:57:29.485Z,0.45
2023-01-21T10:00:09.664Z,0.12
2023-01-21T10:02:44.449Z,0.07
2023-01-21T10:05:40.419Z,0.25
2023-01-21T10:08:19.054Z,0.39
2023-01-21T10:10:51.621Z,-0.14
2023-01-21T10:13:41.393Z,-0.05
2023-01-21T10:16:15.324Z,0.13
2023-01-21T10:18:46.872Z,0.18
2023-01-21T10:21:29.954Z,0.13
2023-01-21T10:24:04.465Z,-0.01
2023-01-21T10:26:35.377Z,-0.13
2023-01-21T10:29:03.669Z,-0.28
2023-01-21T10:31:35.084Z,-0.21
2023-01-21T10:34:03.388Z,-0.17
2023-01-21T10:36:51.551Z,-0.05
2023-01-21T10:39:32.762Z,-0.22
2023-01-21T10:42:29.559Z,-0.13
2023-01-21T10:45:02.598Z,0.11
2023-01-21T10:47:39.774Z,0.11
2023-01-21T10:50:29.546Z,0.34
2023-01-21T10:53:02.027Z,0.40
2023-01-21T10:55:41.937Z,0.09
2023-01-21T10:58:21.147Z,0.55
2023-01-21T11:00:50.958Z,0.58
2023-01-21T11:03:28.719Z,0.51
2023-01-21T11:05:56.579Z,0.05
2023-01-21T11:08:27.006Z,0.33
2023-01-21T11:10:57.776Z,0.18
2023-01-21T11:13:25.472Z,0.28
2023-01-21T11:15:55.649Z,0.58
2023-01-21T11:18:29.231Z,0.37
2023-01-21T11:20:59.675Z,0.15
2023-01-21T11:23:29.896Z,-0.20
2023-01-21T11:26:10.120Z,-0.12
2023-01-21T11:28:38.020Z,-0.07
2023-01-21T11:31:10.984Z,-0.14
2023-01-21T11:33:40.309Z,-0.22
2023-01-21T11:36:14.004Z,-0.14
2023-01-21T11:38:43.067Z,-0.17
2023-01-21T11:41:22.341Z,-0.26
2023-01-21T11:43:52.271Z,-0.39
2023-01-21T11:46:38.543Z,-0.30
2023-01-21T11:49:29.024Z,-0.19
2023-01-21T11:52:16.767Z,-0.25
2023-01-21T11:54:44.665Z,-0.12
2023-01-21T11:57:30.292Z,-0.15
2023-01-21T12:00:07.502Z,-0.26
2023-01-21T12:02:40.832Z,-0.39
2023-01-21T12:05:15.391Z,-0.26
2023-01-21T12:07:44.337Z,-0.40
2023-01-21T12:10:25.591Z,-0.38
2023-01-21T12:13:09.676Z,-0.18
2023-01-21T12:15:49.814Z,-0.29
2023-01-21T12:18:27.323Z,0.05
2023-01-21T12:21:02.811Z,-0.32
2023-01-21T12:23:43.939Z,-0.04
2023-01-21T12:26:25.465Z,-0.02
2023-01-21T12:29:11.488Z,-0.08
2023-01-21T12:31:43.586Z,-0.09
2023-01-21T12:34:17.533Z,-0.29
2023-01-21T12:36:50.666Z,-0.16
2023-01-21T12:39:22.238Z,-0.34
2023-01-21T12:42:01.659Z,-0.18
2023-01-21T12:44:36.239Z,-0.17
2023-01-21T12:47:11.159Z,-0.04
2023-01-21T12:50:04.623Z,-0.34
2023-01-21T12:52:40.765Z,-0.23
2023-01-21T12:55:19.433Z,-0.07
2023-01-21T12:57:54.744Z,-0.17
2023-01-21T13:00:28.216Z,-0.16
2023-01-21T13:03:04.289Z,-0.28
2023-01-21T13:05:39.655Z,-0.28
2023-01-21T13:08:33.271Z,-0.20
2023-01-21T13:11:07.015Z,-0.15
2023-01-21T13:13:37.148Z,-0.05
2023-01-21T13:16:09.842Z,0.03
2023-01-21T13:18:40.244Z,-0.16
2023-01-21T13:21:17.410Z,-0.31
2023-01-21T13:23:49.409Z,-0.26
2023-01-21T13:26:24.212Z,-0.32
2023-01-21T13:28:58.610Z,-0.33
2023-01-21T13:31:32.476Z,-0.30
2023-01-21T13:34:05.859Z,-0.25
2023-01-21T13:36:57.475Z,-0.20
2023-01-21T13:39:33.345Z,-0.19
2023-01-21T13:42:17.286Z,0.09
2023-01-21T13:45:15.152Z,-0.15
2023-01-21T13:48:12.007Z,-0.14
2023-01-21T13:50:54.673Z,-0.09
2023-01-21T13:53:39.430Z,-0.14
2023-01-21T13:56:22.899Z,-0.23
2023-01-21T13:58:54.652Z,-0.20
2023-01-21T14:01:29.049Z,-0.43
2023-01-21T14:04:04.507Z,-0.39
2023-01-21T14:06:38.076Z,-0.47
2023-01-21T14:09:14.089Z,-0.37
2023-01-21T14:11:45.351Z,-0.38
2023-01-21T14:14:31.357Z,-0.42
2023-01-21T14:17:32.588Z,-0.29
2023-01-21T14:20:18.616Z,-0.45
2023-01-21T14:23:16.120Z,-0.27
2023-01-21T14:26:07.246Z,-0.30
2023-01-21T14:28:40.153Z,-0.19
2023-01-21T14:31:13.437Z,-0.27
2023-01-21T14:33:46.689Z,-0.23
2023-01-21T14:36:19.483Z,-0.15
2023-01-21T14:38:58.709Z,-0.34
2023-01-21T14:41:47.301Z,-0.08
2023-01-21T14:44:37.134Z,-0.24
2023-01-21T14:47:19.559Z,-0.19
2023-01-21T14:49:49.019Z,-0.06
2023-01-21T14:52:19.907Z,-0.03
2023-01-21T14:54:48.746Z,-0.14
2023-01-21T14:57:27.424Z,-0.13
2023-01-21T15:00:02.745Z,-0.03
2023-01-21T15:02:33.391Z,-0.13
2023-01-21T15:05:03.461Z,0.06
2023-01-21T15:07:36.209Z,0.00
2023-01-21T15:10:11.354Z,-0.12
2023-01-21T15:12:40.746Z,-0.24
2023-01-21T15:15:31.552Z,-0.04
2023-01-21T15:18:23.108Z,-0.10
2023-01-21T15:20:57.671Z,-0.11
2023-01-21T15:23:39.910Z,0.11
2023-01-21T15:26:34.450Z,-0.09
2023-01-21T15:29:23.337Z,-0.04
2023-01-21T15:31:51.122Z,-0.03
2023-01-21T15:34:20.575Z,-0.10
2023-01-21T15:36:52.931Z,0.06
2023-01-21T15:39:29.972Z,-0.03
2023-01-21T15:42:10.525Z,0.04
2023-01-21T15:44:52.748Z,0.04
2023-01-21T15:47:41.562Z,-0.04
2023-01-21T15:50:20.955Z,-0.08
2023-01-21T15:53:03.945Z,-0.16
2023-01-21T15:55:58.168Z,0.02
2023-01-21T15:58:39.557Z,-0.02
2023-01-21T16:01:15.813Z,-0.11
2023-01-21T16:04:05.201Z,-0.10
2023-01-21T16:06:42.582Z,-0.08
2023-01-21T16:09:18.148Z,-0.18
2023-01-21T16:11:59.976Z,-0.03
2023-01-21T16:14:41.463Z,-0.04
2023-01-21T16:17:17.693Z,0.01
2023-01-21T16:19:48.683Z,-0.09
2023-01-21T16:22:21.483Z,-0.04
2023-01-21T16:24:53.612Z,-0.11
2023-01-21T16:27:25.455Z,-0.08
2023-01-21T16:29:57.259Z,-0.07
2023-01-21T16:32:26.851Z,-0.15
2023-01-21T16:34:55.375Z,-0.07
2023-01-21T16:37:26.172Z,-0.04
2023-01-21T16:39:56.622Z,-0.06
2023-01-21T16:42:32.000Z,0.01
2023-01-21T16:45:00.242Z,-0.10
2023-01-21T16:47:31.337Z,-0.06
2023-01-21T16:49:59.020Z,-0.12
2023-01-21T16:52:27.965Z,-0.09
2023-01-21T16:54:56.850Z,-0.10
2023-01-21T16:57:31.515Z,-0.06
2023-01-21T17:00:02.273Z,-0.04
2023-01-21T17:02:33.150Z,0.02
2023-01-21T17:05:04.545Z,0.04
2023-01-21T17:07:35.376Z,-0.10
2023-01-21T17:10:06.671Z,0.04
2023-01-21T17:12:36.551Z,0.06
2023-01-21T17:15:15.597Z,-0.06
2023-01-21T17:17:43.561Z,-0.03
2023-01-21T17:20:36.463Z,-0.07
2023-01-21T17:23:06.748Z,-0.19
2023-01-21T17:25:36.424Z,-0.11
2023-01-21T17:28:19.921Z,-0.11
2023-01-21T17:30:47.804Z,-0.06
2023-01-21T17:33:30.455Z,-0.06
2023-01-21T17:36:10.458Z,0.08
2023-01-21T17:38:42.666Z,0.04
2023-01-21T17:41:22.459Z,0.03
2023-01-21T17:43:55.428Z,0.13
2023-01-21T17:46:23.698Z,0.05
2023-01-21T17:48:54.273Z,0.06
2023-01-21T17:51:24.509Z,-0.03
2023-01-21T17:53:56.392Z,0.03
2023-01-21T17:56:42.084Z,0.04
2023-01-21T17:59:38.644Z,0.00
2023-01-21T18:02:11.048Z,-0.05
2023-01-21T18:04:38.660Z,-0.05
2023-01-21T18:07:16.559Z,0.00
2023-01-21T18:09:44.260Z,0.02
2023-01-21T18:12:12.182Z,0.00
2023-01-21T18:14:41.742Z,-0.03
2023-01-21T18:17:11.162Z,-0.11
2023-01-21T18:19:42.134Z,0.02
2023-01-21T18:22:21.310Z,0.00
2023-01-21T18:24:48.877Z,0.02
2023-01-21T18:27:17.101Z,0.04
2023-01-21T18:29:46.062Z,-0.01
2023-01-21T18:32:15.366Z,-0.03
2023-01-21T18:34:43.047Z,0.07
2023-01-21T18:37:15.011Z,0.11
2023-01-21T18:39:42.904Z,0.05
2023-01-21T18:42:12.899Z,-0.06
2023-01-21T18:44:40.590Z,-0.02
2023-01-21T18:47:13.465Z,0.02
2023-01-21T18:49:41.556Z,0.04
2023-01-21T18:52:11.260Z,-0.01
2023-01-21T18:54:38.811Z,0.09
2023-01-21T18:57:10.788Z,0.11
2023-01-21T18:59:38.497Z,0.12
2023-01-21T19:02:13.700Z,0.23
2023-01-21T19:04:41.392Z,0.26
2023-01-21T19:07:14.798Z,0.10
2023-01-21T19:09:45.937Z,0.19
2023-01-21T19:12:14.353Z,0.10
2023-01-21T19:14:42.014Z,0.18
2023-01-21T19:17:13.635Z,0.10
2023-01-21T19:19:41.742Z,0.06
2023-01-21T19:22:13.528Z,0.07
2023-01-21T19:24:41.198Z,0.05
2023-01-21T19:27:11.159Z,0.02
2023-01-21T19:29:38.719Z,-0.15
2023-01-21T19:32:07.945Z,-0.10
2023-01-21T19:34:37.356Z,-0.14
2023-01-21T19:37:05.214Z,-0.20
2023-01-21T19:39:34.386Z,-0.04
2023-01-21T19:42:08.383Z,-0.15
2023-01-21T19:44:36.503Z,-0.11
2023-01-21T19:47:04.426Z,-0.15
2023-01-21T19:49:32.203Z,-0.05
2023-01-21T19:52:01.316Z,-0.13
2023-01-21T19:54:29.143Z,-0.11
2023-01-21T19:56:56.923Z,-0.16
2023-01-21T19:59:24.510Z,-0.23
2023-01-21T20:01:52.187Z,-0.20
2023-01-21T20:04:19.853Z,-0.18
2023-01-21T20:06:47.543Z,-0.20
2023-01-21T20:09:18.805Z,-0.14
2023-01-21T20:11:46.412Z,-0.23
2023-01-21T20:14:14.098Z,-0.19
2023-01-21T20:16:46.065Z,-0.14
2023-01-21T20:19:17.045Z,-0.14
2023-01-21T20:21:59.666Z,-0.09
2023-01-21T20:24:33.726Z,-0.19
2023-01-21T20:27:03.219Z,-0.23
2023-01-21T20:29:30.824Z,-0.22
2023-01-21T20:31:58.545Z,-0.20
2023-01-21T20:34:27.663Z,-0.11
2023-01-21T20:36:56.127Z,-0.21
2023-01-21T20:39:24.185Z,-0.12
2023-01-21T20:41:53.134Z,-0.17
2023-01-21T20:44:20.770Z,-0.12
2023-01-21T20:46:48.644Z,-0.17
2023-01-21T20:49:16.400Z,0.01
2023-01-21T20:51:43.968Z,-0.06
2023-01-21T20:54:11.546Z,-0.11
2023-01-21T20:56:39.266Z,-0.09
2023-01-21T20:59:10.035Z,-0.14
2023-01-21T21:01:39.348Z,-0.12
2023-01-21T21:04:07.076Z,-0.06
2023-01-21T21:06:34.675Z,-0.07
2023-01-21T21:09:02.384Z,-0.08
2023-01-21T21:11:29.952Z,0.00
2023-01-21T21:13:58.520Z,0.00
2023-01-21T21:16:31.751Z,0.02
2023-01-21T21:19:00.655Z,-0.07
2023-01-21T21:21:29.212Z,-0.12
2023-01-21T21:23:56.839Z,-0.08
2023-01-21T21:26:27.241Z,-0.03
2023-01-21T21:28:55.520Z,0.05
2023-01-21T21:31:24.171Z,-0.02
2023-01-21T21:33:53.324Z,-0.09
2023-01-21T21:36:23.029Z,-0.06
2023-01-21T21:38:52.127Z,-0.02
2023-01-21T21:41:39.453Z,0.01
2023-01-21T21:44:07.996Z,-0.10
2023-01-21T21:46:50.975Z,-0.09
2023-01-21T21:49:19.987Z,-0.17
2023-01-21T21:51:47.584Z,-0.20
2023-01-21T21:54:18.356Z,-0.18
2023-01-21T21:56:46.364Z,-0.16
2023-01-21T21:59:14.668Z,-0.09
2023-01-21T22:01:43.544Z,-0.04
2023-01-21T22:04:11.899Z,-0.11
2023-01-21T22:06:41.206Z,-0.11
2023-01-21T22:09:09.545Z,-0.09
2023-01-21T22:11:37.304Z,-0.04
2023-01-21T22:14:05.013Z,-0.12
2023-01-21T22:16:33.396Z,-0.09
2023-01-21T22:19:01.773Z,-0.17
2023-01-21T22:21:32.698Z,-0.19
2023-01-21T22:24:02.716Z,-0.07
2023-01-21T22:26:30.901Z,-0.11
2023-01-21T22:28:58.711Z,-0.24
2023-01-21T22:31:28.972Z,-0.24
2023-01-21T22:33:57.477Z,-0.25
2023-01-21T22:36:26.887Z,-0.14
2023-01-21T22:38:55.202Z,-0.28
2023-01-21T22:41:25.193Z,-0.29
2023-01-21T22:43:53.567Z,-0.36
2023-01-21T22:46:23.014Z,-0.33
2023-01-21T22:48:51.032Z,-0.34
2023-01-21T22:51:21.219Z,-0.38
2023-01-21T22:53:49.789Z,-0.37
2023-01-21T22:56:19.034Z,-0.30
2023-01-21T22:58:48.170Z,-0.41
2023-01-21T23:01:25.397Z,-0.55
2023-01-21T23:03:53.461Z,-0.44
2023-01-21T23:06:21.201Z,-0.43
2023-01-21T23:08:49.186Z,-0.47
2023-01-21T23:11:18.734Z,-0.44
2023-01-21T23:13:49.216Z,-0.50
2023-01-21T23:16:20.911Z,-0.50
2023-01-21T23:18:48.875Z,-0.51
2023-01-21T23:21:18.857Z,-0.51
2023-01-21T23:23:46.553Z,-0.36
2023-01-21T23:26:14.803Z,-0.37
2023-01-21T23:28:43.111Z,-0.34
2023-01-21T23:31:14.635Z,-0.47
2023-01-21T23:33:42.749Z,-0.52
2023-01-21T23:36:13.132Z,-0.40
2023-01-21T23:38:41.764Z,-0.43
2023-01-21T23:41:11.890Z,-0.40
2023-01-21T23:43:39.767Z,-0.30
2023-01-21T23:46:08.267Z,-0.30
2023-01-21T23:48:37.265Z,-0.40
2023-01-21T23:51:06.726Z,-0.34
2023-01-21T23:53:35.145Z,-0.31
2023-01-21T23:56:07.593Z,-0.24
2023-01-21T23:58:35.326Z,-0.26
